Time;durP1;ratioP1;P1;durP2;ratioP2;P2;SDS_P1;SDS_P2;PMS_P1;PMS_P2;Temp;Humidity;BMP_temperature;BMP_pressure;BME280_temperature;BME280_humidity;BME280_pressure;Samples;Min_cycle;Max_cycle;Signal;HPM_P1;HPM_P2
2023/07/12 00:01:25;;;;;;;4.10;3.30;;;;;;;16.30;100.00;99544.00;104300;1267;72519;-56
2023/07/12 00:03:54;;;;;;;4.00;3.60;;;;;;;16.27;100.00;99541.69;104240;1262;61355;-55
2023/07/12 00:06:36;;;;;;;3.40;3.20;;;;;;;16.25;100.00;99539.74;104308;1261;60443;-55
2023/07/12 00:09:06;;;;;;;3.20;2.90;;;;;;;16.22;100.00;99540.63;104434;1253;73655;-56
2023/07/12 00:11:34;;;;;;;3.60;3.30;;;;;;;16.20;100.00;99544.34;104268;1253;69214;-55
2023/07/12 00:14:01;;;;;;;;;;;;;;;16.19;100.00;99546.66;104435;1254;72382;-56
2023/07/12 00:16:33;;;;;;;;;;;;;;;16.15;100.00;99552.23;104271;1254;61579;-56
2023/07/12 00:19:01;;;;;;;3.20;2.90;;;;;;;16.10;100.00;99547.13;104402;1253;60604;-56
2023/07/12 00:21:30;;;;;;;3.60;3.10;;;;;;;16.06;100.00;99546.14;104399;1269;73536;-56
2023/07/12 00:23:59;;;;;;;3.40;3.10;;;;;;;16.03;100.00;99545.60;104499;1260;70017;-56
2023/07/12 00:26:31;;;;;;;3.40;3.10;;;;;;;16.01;100.00;99550.17;104258;1256;73335;-56
2023/07/12 00:29:00;;;;;;;3.70;3.40;;;;;;;16.01;100.00;99549.52;104445;1253;61471;-55
2023/07/12 00:31:31;;;;;;;3.50;3.30;;;;;;;16.02;100.00;99552.22;106570;1250;60457;-56
2023/07/12 00:33:59;;;;;;;3.40;3.10;;;;;;;15.99;100.00;99551.92;108432;1252;74495;-56
2023/07/12 00:36:28;;;;;;;2.80;2.60;;;;;;;16.01;100.00;99556.01;105038;1256;68156;-56
2023/07/12 00:38:57;;;;;;;4.60;3.40;;;;;;;16.00;100.00;99556.95;104594;1256;72658;-56
2023/07/12 00:41:28;;;;;;;3.80;3.10;;;;;;;15.98;100.00;99562.07;104250;1252;62346;-57
2023/07/12 00:44:02;;;;;;;3.40;3.20;;;;;;;15.97;100.00;99560.91;104367;1257;60440;-55
2023/07/12 00:46:46;;;;;;;3.30;3.10;;;;;;;15.90;100.00;99557.81;104314;1265;73586;-56
2023/07/12 00:49:14;;;;;;;3.40;3.10;;;;;;;15.85;100.00;99555.83;104365;1257;69197;-55
2023/07/12 00:51:52;;;;;;;4.60;3.10;;;;;;;15.85;100.00;99555.85;104374;1272;72101;-56
2023/07/12 00:54:23;;;;;;;3.30;3.00;;;;;;;15.82;100.00;99554.24;104392;1257;61403;-55
2023/07/12 00:56:51;;;;;;;3.20;3.00;;;;;;;15.80;100.00;99556.51;104453;1253;61169;-55
2023/07/12 00:59:21;;;;;;;;;;;;;;;15.79;100.00;99560.14;104398;1252;74057;-55
2023/07/12 01:01:51;;;;;;;3.70;3.30;;;;;;;15.76;100.00;99559.27;104345;1259;69120;-56
2023/07/12 01:04:27;;;;;;;3.80;3.30;;;;;;;15.70;100.00;99556.44;104437;1256;72497;-55
2023/07/12 01:06:54;;;;;;;3.30;3.10;;;;;;;15.69;100.00;99562.67;104483;1252;61398;-56
2023/07/12 01:09:22;;;;;;;3.40;3.20;;;;;;;15.69;100.00;99561.61;104446;1251;60530;-56
2023/07/12 01:11:50;;;;;;;5.50;3.30;;;;;;;15.67;100.00;99559.84;104277;1273;72715;-55
2023/07/12 01:14:17;;;;;;;3.30;3.00;;;;;;;15.64;100.00;99558.63;104403;1256;68476;-56
2023/07/12 01:16:49;;;;;;;3.30;3.10;;;;;;;15.64;100.00;99557.20;104355;1254;72463;-57
2023/07/12 01:19:16;;;;;;;5.80;2.90;;;;;;;15.65;100.00;99558.02;104279;1250;62383;-56
2023/07/12 01:21:46;;;;;;;3.30;3.10;;;;;;;15.64;100.00;99561.41;104317;1250;60622;-56
2023/07/12 01:24:15;;;;;;;3.50;3.20;;;;;;;15.60;100.00;99557.61;104305;1261;73109;-56
2023/07/12 01:26:51;;;;;;;3.50;3.20;;;;;;;15.57;100.00;99553.19;104584;1255;69579;-56
2023/07/12 01:29:19;;;;;;;5.10;2.90;;;;;;;15.73;100.00;99548.98;105151;1251;71418;-56
2023/07/12 01:31:47;;;;;;;3.40;3.20;;;;;;;15.66;100.00;99547.47;104323;1256;60924;-56
2023/07/12 01:34:16;;;;;;;3.70;3.30;;;;;;;15.62;100.00;99546.48;107030;1250;60104;-56
2023/07/12 01:36:44;;;;;;;4.40;3.20;;;;;;;15.75;100.00;99545.55;105548;1256;73638;-56
2023/07/12 01:39:12;;;;;;;3.70;3.40;;;;;;;15.62;100.00;99541.39;104406;1258;69545;-56
2023/07/12 01:41:39;;;;;;;3.60;3.20;;;;;;;15.60;100.00;99539.64;104319;1256;72526;-56
2023/07/12 01:44:07;;;;;;;;;;;;;;;15.59;100.00;99539.13;104614;1256;62313;-56
2023/07/12 01:46:35;;;;;;;;;;;;;;;15.66;100.00;99542.02;104368;1257;60545;-55
2023/07/12 01:49:04;;;;;;;3.60;3.40;;;;;;;15.56;100.00;99548.53;104370;1257;73627;-55
2023/07/12 01:51:32;;;;;;;4.80;3.60;;;;;;;15.54;100.00;99544.91;104359;1260;68120;-55
2023/07/12 01:54:00;;;;;;;7.40;3.40;;;;;;;15.53;100.00;99543.74;104440;1250;72398;-55
2023/07/12 01:56:28;;;;;;;;;;;;;;;15.53;100.00;99543.02;104297;1253;61763;-55
2023/07/12 01:58:56;;;;;;;3.70;3.40;;;;;;;15.55;100.00;99543.75;104423;1250;60614;-55
2023/07/12 02:01:23;;;;;;;;;;;;;;;15.53;100.00;99547.43;104446;1269;73619;-57
2023/07/12 02:03:51;;;;;;;;;;;;;;;15.57;100.00;99548.82;104280;1255;69334;-56
2023/07/12 02:06:19;;;;;;;3.60;3.30;;;;;;;15.54;100.00;99544.57;104578;1251;72921;-55
2023/07/12 02:08:47;;;;;;;3.40;3.20;;;;;;;15.51;100.00;99542.48;104552;1269;61715;-56
2023/07/12 02:11:15;;;;;;;6.00;3.50;;;;;;;15.54;100.00;99547.73;104439;1251;60470;-55
2023/07/12 02:13:43;;;;;;;4.00;3.10;;;;;;;15.54;100.00;99548.08;104463;1266;73844;-55
2023/07/12 02:16:10;;;;;;;3.60;3.40;;;;;;;15.57;100.00;99547.23;104538;1250;69094;-55
2023/07/12 02:18:38;;;;;;;;;;;;;;;15.60;100.00;99544.88;104425;1257;72525;-55
2023/07/12 02:21:09;;;;;;;4.10;3.20;;;;;;;15.63;100.00;99543.46;104484;1253;61849;-55
2023/07/12 02:23:37;;;;;;;3.40;3.20;;;;;;;15.58;100.00;99548.00;104648;1254;60971;-55
2023/07/12 02:26:05;;;;;;;4.10;3.60;;;;;;;15.60;100.00;99542.39;104520;1256;74132;-56
2023/07/12 02:28:33;;;;;;;;;;;;;;;15.60;100.00;99545.29;104478;1256;69743;-56
2023/07/12 02:31:19;;;;;;;3.70;3.40;;;;;;;15.62;100.00;99545.80;104328;1250;72498;-55
2023/07/12 02:33:48;;;;;;;3.10;2.80;;;;;;;15.66;100.00;99550.88;108431;1250;61522;-56
2023/07/12 02:36:16;;;;;;;3.30;3.10;;;;;;;15.67;100.00;99550.61;107816;1252;60578;-56
2023/07/12 02:38:46;;;;;;;6.10;3.20;;;;;;;15.68;100.00;99553.02;104784;1256;74065;-56
2023/07/12 02:41:16;;;;;;;3.70;3.20;;;;;;;15.70;100.00;99556.80;104729;1254;69165;-55
2023/07/12 02:43:44;;;;;;;3.80;3.50;;;;;;;15.73;100.00;99560.11;104830;1254;72884;-57
2023/07/12 02:46:12;;;;;;;4.50;3.50;;;;;;;15.77;100.00;99561.34;104402;1256;61511;-55
2023/07/12 02:48:40;;;;;;;3.90;3.60;;;;;;;15.81;100.00;99559.63;104776;1256;60446;-56
2023/07/12 02:51:08;;;;;;;3.60;3.30;;;;;;;15.84;100.00;99560.15;104286;1267;73727;-55
2023/07/12 02:53:36;;;;;;;3.60;3.10;;;;;;;15.88;100.00;99567.12;104379;1269;69127;-56
2023/07/12 02:56:08;;;;;;;3.20;3.00;;;;;;;15.91;100.00;99567.45;104558;1250;72020;-56
2023/07/12 02:58:36;;;;;;;4.40;3.50;;;;;;;15.93;100.00;99567.30;104401;1250;61460;-56
2023/07/12 03:01:04;;;;;;;3.80;3.60;;;;;;;15.94;100.00;99571.65;104603;1251;60648;-55
2023/07/12 03:03:32;;;;;;;;;;;;;;;15.98;100.00;99574.11;104596;1256;72854;-56
2023/07/12 03:06:10;;;;;;;3.40;3.10;;;;;;;16.01;100.00;99578.84;104363;1254;69659;-55
2023/07/12 03:08:38;;;;;;;3.60;3.30;;;;;;;16.02;100.00;99577.35;104572;1269;72515;-55
2023/07/12 03:11:06;;;;;;;;;;;;;;;16.03;100.00;99576.55;104383;1253;61414;-55
2023/07/12 03:13:35;;;;;;;3.60;3.20;;;;;;;16.03;100.00;99576.73;104555;1256;60580;-56
2023/07/12 03:16:06;;;;;;;3.40;3.10;;;;;;;16.04;100.00;99581.81;104379;1255;74501;-56
2023/07/12 03:18:34;;;;;;;3.30;3.00;;;;;;;16.07;100.00;99584.23;104486;1251;68068;-56
2023/07/12 03:21:03;;;;;;;3.90;3.30;;;;;;;16.08;100.00;99585.20;104360;1257;72428;-56
2023/07/12 03:23:32;;;;;;;3.90;3.60;;;;;;;16.11;100.00;99583.97;104445;1251;61503;-56
2023/07/12 03:25:59;;;;;;;3.50;3.20;;;;;;;16.13;100.00;99584.90;104536;1252;59830;-55
2023/07/12 03:28:27;;;;;;;3.50;3.20;;;;;;;16.18;100.00;99589.54;104392;1273;73603;-56
2023/07/12 03:31:06;;;;;;;5.60;3.30;;;;;;;16.22;100.00;99592.61;106105;1250;70010;-56
2023/07/12 03:33:34;;;;;;;3.50;3.20;;;;;;;16.25;100.00;99602.30;106709;1250;72368;-56
2023/07/12 03:36:02;;;;;;;4.10;3.80;;;;;;;16.29;100.00;99610.19;108423;1251;61809;-57
2023/07/12 03:38:30;;;;;;;;;;;;;;;16.32;100.00;99615.46;105110;1256;60681;-57
2023/07/12 03:41:02;;;;;;;3.50;3.20;;;;;;;16.36;100.00;99618.73;104368;1266;73146;-56
2023/07/12 03:43:31;;;;;;;3.70;3.30;;;;;;;16.39;100.00;99618.40;104769;1249;70173;-56
2023/07/12 03:45:58;;;;;;;3.40;3.20;;;;;;;16.39;100.00;99623.33;104336;1254;72393;-56
2023/07/12 03:48:26;;;;;;;8.30;3.30;;;;;;;16.41;100.00;99629.73;105074;1256;61615;-56
2023/07/12 03:50:57;;;;;;;3.70;3.40;;;;;;;16.44;100.00;99635.06;104562;1256;60440;-56
2023/07/12 03:53:26;;;;;;;3.40;3.10;;;;;;;16.45;100.00;99641.51;104628;1255;73714;-57
2023/07/12 03:55:57;;;;;;;4.80;3.40;;;;;;;16.46;100.00;99645.67;104577;1256;69070;-56
2023/07/12 03:58:28;;;;;;;3.30;3.10;;;;;;;16.48;100.00;99643.61;104548;1256;73313;-57
2023/07/12 04:00:56;;;;;;;6.70;3.80;;;;;;;16.50;100.00;99644.17;104415;1272;61413;-56
2023/07/12 04:03:23;;;;;;;5.80;3.70;;;;;;;16.56;100.00;99641.45;104227;1250;60729;-57
2023/07/12 04:05:51;;;;;;;4.90;3.40;;;;;;;16.60;100.00;99642.80;104494;1257;74589;-56
2023/07/12 04:08:20;;;;;;;6.60;3.40;;;;;;;16.57;100.00;99644.39;104433;1256;69155;-56
2023/07/12 04:10:54;;;;;;;3.60;3.30;;;;;;;16.58;100.00;99645.41;104475;1256;72488;-57
2023/07/12 04:13:23;;;;;;;3.60;3.30;;;;;;;16.65;100.00;99651.48;104526;1253;61573;-57
2023/07/12 04:32:51;;;;;;;3.20;3.00;;;;;;;16.90;100.00;99663.96;101365;1295;601563;-57
2023/07/12 04:35:20;;;;;;;4.40;3.80;;;;;;;17.27;100.00;99666.55;103745;1282;61826;-57
2023/07/12 04:37:48;;;;;;;3.40;3.20;;;;;;;17.35;100.00;99670.06;103719;1266;60049;-58
2023/07/12 04:40:17;;;;;;;4.00;3.50;;;;;;;17.42;100.00;99668.69;103900;1268;72516;-57
2023/07/12 04:42:45;;;;;;;7.00;3.80;;;;;;;17.52;100.00;99675.61;103820;1267;70063;-58
2023/07/12 04:45:13;;;;;;;4.30;3.20;;;;;;;17.65;100.00;99680.02;103654;1270;72857;-56
2023/07/12 04:47:41;;;;;;;;;;;;;;;17.77;100.00;99680.95;103834;1264;61932;-56
2023/07/12 04:50:11;;;;;;;3.60;3.20;;;;;;;17.86;100.00;99680.80;103956;1266;59495;-56
2023/07/12 04:52:39;;;;;;;3.40;2.90;;;;;;;17.93;100.00;99679.77;104001;1263;71728;-57
2023/07/12 04:55:25;;;;;;;4.40;2.50;;;;;;;18.02;100.00;99680.18;104053;1268;68413;-56
2023/07/12 04:57:54;;;;;;;5.90;3.20;;;;;;;18.11;100.00;99679.20;104137;1267;72506;-57
2023/07/12 05:00:25;;;;;;;5.10;3.10;;;;;;;18.20;100.00;99682.73;103858;1264;62371;-56
2023/07/12 05:02:53;;;;;;;3.20;2.90;;;;;;;18.24;100.00;99687.42;103995;1266;59831;-57
2023/07/12 05:05:22;;;;;;;3.50;3.10;;;;;;;18.30;100.00;99686.48;104012;1269;72733;-58
2023/07/12 05:07:49;;;;;;;3.60;3.30;;;;;;;18.35;100.00;99683.09;103924;1265;69065;-57
2023/07/12 05:10:17;;;;;;;6.70;3.70;;;;;;;18.39;100.00;99678.36;103990;1280;73351;-56
2023/07/12 05:12:45;;;;;;;3.60;3.00;;;;;;;18.44;100.00;99671.44;104169;1263;61451;-57
2023/07/12 05:15:13;;;;;;;;;;;;;;;18.50;100.00;99671.84;103968;1266;60507;-57
2023/07/12 05:17:41;;;;;;;5.60;3.10;;;;;;;18.55;100.00;99667.73;104004;1268;72025;-57
2023/07/12 05:20:10;;;;;;;3.00;2.80;;;;;;;18.61;100.00;99669.44;104078;1268;68139;-57
2023/07/12 05:22:39;;;;;;;3.70;2.70;;;;;;;18.67;100.00;99670.77;104079;1263;72873;-57
2023/07/12 05:25:07;;;;;;;2.90;2.50;;;;;;;18.76;100.00;99668.85;103826;1269;62343;-56
2023/07/12 05:27:35;;;;;;;3.20;2.80;;;;;;;18.84;100.00;99666.44;104247;1269;60702;-56
2023/07/12 05:30:03;;;;;;;;;;;;;;;18.94;100.00;99667.85;103966;1264;72927;-57
2023/07/12 05:32:31;;;;;;;2.60;2.20;;;;;;;19.02;100.00;99662.39;104037;1279;69213;-57
2023/07/12 05:34:59;;;;;;;6.50;2.60;;;;;;;19.08;100.00;99658.41;105017;1264;72399;-57
2023/07/12 05:37:27;;;;;;;5.50;2.40;;;;;;;19.19;100.00;99656.82;107046;1264;61650;-57
2023/07/12 05:39:59;;;;;;;3.90;2.20;;;;;;;19.28;100.00;99650.77;104654;1263;59759;-57
2023/07/12 05:42:27;;;;;;;;;;;;;;;19.36;100.00;99645.54;104048;1279;73237;-56
2023/07/12 05:44:54;;;;;;;3.50;2.20;;;;;;;19.43;100.00;99641.98;104004;1269;69584;-57
2023/07/12 05:47:22;;;;;;;4.50;2.30;;;;;;;19.47;100.00;99636.30;104009;1267;72355;-57
2023/07/12 05:49:50;;;;;;;2.60;2.40;;;;;;;19.59;100.00;99633.75;103844;1264;61420;-57
2023/07/12 05:52:18;;;;;;;4.60;2.10;;;;;;;19.63;100.00;99629.48;103901;1266;59678;-57
2023/07/12 06:02:38;;;;;;;3.20;2.50;;;;;;;19.86;100.00;99628.45;103918;1279;72957;-57
2023/07/12 06:05:06;;;;;;;2.40;2.20;;;;;;;19.89;100.00;99630.72;104046;1269;61429;-55
2023/07/12 06:07:34;;;;;;;3.90;2.50;;;;;;;19.92;100.00;99633.46;103945;1269;60143;-55
2023/07/12 06:10:02;;;;;;;2.10;1.90;;;;;;;19.96;100.00;99629.34;103930;1269;72906;-55
2023/07/12 06:12:30;;;;;;;3.30;1.90;;;;;;;20.00;100.00;99631.67;104016;1276;69137;-55
2023/07/12 06:14:59;;;;;;;3.90;1.90;;;;;;;20.05;100.00;99625.09;103968;1266;72649;-55
2023/07/12 06:17:27;;;;;;;;;;;;;;;20.10;100.00;99617.39;103909;1264;60443;-55
2023/07/12 06:19:55;;;;;;;7.10;2.10;;;;;;;20.17;100.00;99617.67;103672;1265;59780;-55
2023/07/12 06:22:23;;;;;;;;;;;;;;;20.21;100.00;99613.75;103920;1266;72004;-56
2023/07/12 06:24:53;;;;;;;3.70;1.80;;;;;;;20.26;100.00;99612.66;103821;1269;68531;-55
2023/07/12 06:27:21;;;;;;;4.20;1.80;;;;;;;20.28;100.00;99611.98;103844;1267;72488;-55
2023/07/12 06:29:48;;;;;;;;;;;;;;;20.35;100.00;99611.70;103888;1269;61395;-55
2023/07/12 06:32:16;;;;;;;;;;;;;;;20.45;100.00;99618.91;103876;1270;59826;-56
2023/07/12 06:34:44;;;;;;;5.40;1.40;;;;;;;20.52;100.00;99614.60;103864;1268;73286;-55
2023/07/12 06:37:11;;;;;;;2.50;1.20;;;;;;;20.59;100.00;99618.41;107082;1263;69480;-56
2023/07/12 06:39:39;;;;;;;1.70;1.30;;;;;;;20.68;100.00;99616.77;105173;1263;73817;-54
2023/07/12 06:42:07;;;;;;;2.80;1.20;;;;;;;20.78;100.00;99606.38;103989;1266;60332;-55
2023/07/12 06:44:35;;;;;;;3.50;1.20;;;;;;;20.90;100.00;99607.42;103950;1264;59757;-55
2023/07/12 06:47:04;;;;;;;2.50;1.20;;;;;;;20.96;100.00;99596.73;103985;1264;72750;-56
2023/07/12 06:49:32;;;;;;;;;;;;;;;21.03;100.00;99593.46;103950;1263;69636;-55
2023/07/12 06:52:00;;;;;;;1.50;1.10;;;;;;;21.10;100.00;99593.75;103945;1268;72524;-55
2023/07/12 06:54:28;;;;;;;1.70;0.90;;;;;;;21.15;99.15;99592.29;103941;1267;59909;-56
2023/07/12 06:56:59;;;;;;;3.50;1.20;;;;;;;21.20;99.86;99592.16;103858;1269;59563;-55
2023/07/12 06:59:27;;;;;;;;;;;;;;;21.29;99.52;99603.15;103946;1276;72918;-56
2023/07/12 07:01:54;;;;;;;;;;;;;;;21.37;94.58;99599.74;103961;1269;68225;-55
2023/07/12 07:04:22;;;;;;;;;;;;;;;21.38;90.70;99598.24;103912;1264;72748;-55
2023/07/12 07:06:50;;;;;;;1.20;1.10;;;;;;;21.43;94.57;99594.63;103943;1266;59780;-55
2023/07/12 07:09:18;;;;;;;;;;;;;;;21.47;96.24;99591.08;103941;1268;59762;-55
2023/07/12 07:11:46;;;;;;;;;;;;;;;21.43;86.87;99588.39;103889;1269;71911;-55
2023/07/12 07:14:14;;;;;;;1.50;1.10;;;;;;;21.35;83.73;99592.27;103854;1273;69339;-55
2023/07/12 07:16:42;;;;;;;2.70;1.10;;;;;;;21.33;89.55;99592.80;103849;1264;72921;-55
2023/07/12 07:19:10;;;;;;;1.90;1.20;;;;;;;21.34;81.54;99594.70;103818;1269;59826;-56
2023/07/12 07:21:40;;;;;;;1.10;0.90;;;;;;;21.26;81.09;99594.48;103999;1269;60711;-55
2023/07/12 07:24:08;;;;;;;0.90;0.90;;;;;;;21.14;76.51;99593.02;103949;1267;73050;-55
2023/07/12 07:26:36;;;;;;;1.40;0.90;;;;;;;21.02;75.56;99588.55;104292;1267;69393;-56
2023/07/12 07:29:04;;;;;;;0.90;0.90;;;;;;;20.98;75.50;99584.25;104131;1269;72615;-56
2023/07/12 07:31:32;;;;;;;;;;;;;;;21.01;73.81;99582.80;103888;1272;59847;-56
2023/07/12 07:34:00;;;;;;;;;;;;;;;21.13;69.60;99580.86;103947;1267;59833;-55
2023/07/12 07:36:27;;;;;;;;;;;;;;;21.23;67.58;99574.14;105469;1264;72778;-56
2023/07/12 07:38:55;;;;;;;2.80;1.00;;;;;;;21.32;70.71;99573.09;107032;1263;69226;-56
2023/07/12 07:41:23;;;;;;;1.60;1.10;;;;;;;21.42;70.74;99571.34;104420;1269;72867;-57
2023/07/12 07:43:51;;;;;;;1.10;1.00;;;;;;;21.54;69.67;99573.46;104163;1269;59817;-55
2023/07/12 07:46:19;;;;;;;2.50;1.00;;;;;;;21.67;69.38;99571.84;103937;1261;59818;-56
2023/07/12 07:48:46;;;;;;;1.90;1.00;;;;;;;21.80;68.55;99576.88;105243;1265;73492;-55
2023/07/12 07:51:14;;;;;;;1.70;1.00;;;;;;;21.75;63.92;99578.79;103924;1266;70113;-56
2023/07/12 07:53:43;;;;;;;1.60;0.80;;;;;;;21.60;65.37;99583.85;103848;1266;72373;-56
2023/07/12 07:56:11;;;;;;;1.10;1.00;;;;;;;21.47;65.67;99582.88;103948;1260;59861;-56
2023/07/12 07:58:39;;;;;;;4.10;0.90;;;;;;;21.36;69.44;99575.77;103901;1260;59758;-56
2023/07/12 08:01:06;;;;;;;1.40;1.00;;;;;;;21.43;66.96;99568.60;103801;1267;72775;-56
2023/07/12 08:03:34;;;;;;;3.10;1.00;;;;;;;21.58;65.74;99565.88;104264;1278;70082;-56
2023/07/12 08:06:04;;;;;;;2.60;1.10;;;;;;;21.73;64.53;99563.77;104276;1256;72370;-56
2023/07/12 08:08:33;;;;;;;0.80;0.80;;;;;;;21.90;62.96;99558.31;104497;1254;60113;-56
2023/07/12 08:11:06;;;;;;;1.00;0.90;;;;;;;22.03;60.30;99556.36;104289;1259;60101;-58
2023/07/12 08:13:35;;;;;;;1.20;1.10;;;;;;;22.22;62.20;99565.95;104550;1254;72802;-56
2023/07/12 08:16:03;;;;;;;4.00;0.90;;;;;;;22.41;58.89;99561.36;104196;1255;69075;-55
2023/07/12 08:18:30;;;;;;;1.30;0.90;;;;;;;22.59;59.77;99561.05;104342;1258;72398;-55
2023/07/12 08:20:58;;;;;;;2.70;0.80;;;;;;;22.78;59.54;99561.27;104301;1254;59749;-55
2023/07/12 08:23:28;;;;;;;1.40;1.10;;;;;;;22.91;56.73;99558.54;104409;1267;59698;-56
2023/07/12 08:25:56;;;;;;;2.20;0.90;;;;;;;22.98;56.75;99567.79;104428;1266;73266;-55
2023/07/12 08:28:24;;;;;;;0.60;0.60;;;;;;;22.94;55.88;99569.50;104479;1260;69034;-56
2023/07/12 08:30:52;;;;;;;5.20;1.00;;;;;;;22.84;57.06;99568.52;104371;1257;72492;-55
2023/07/12 08:33:20;;;;;;;;;;;;;;;22.74;58.89;99566.41;104391;1257;59823;-55
2023/07/12 08:35:48;;;;;;;1.30;0.90;;;;;;;22.66;60.33;99567.54;104513;1258;59820;-55
2023/07/12 08:38:18;;;;;;;3.70;1.00;;;;;;;22.60;59.37;99560.30;108409;1253;72777;-56
2023/07/12 08:40:50;;;;;;;5.40;1.10;;;;;;;22.65;56.14;99554.38;107235;1252;69280;-55
2023/07/12 08:43:23;;;;;;;0.80;0.80;;;;;;;22.78;53.48;99548.01;104605;1257;72526;-55
2023/07/12 08:45:53;;;;;;;1.30;1.00;;;;;;;22.82;51.72;99548.70;104965;1258;60737;-58
2023/07/12 08:48:22;;;;;;;1.00;0.90;;;;;;;22.86;52.95;99550.98;104597;1254;60741;-54
2023/07/12 08:50:50;;;;;;;1.90;0.90;;;;;;;22.96;51.94;99550.22;104683;1259;73580;-54
2023/07/12 08:53:19;;;;;;;;;;;;;;;23.01;50.55;99553.02;104406;1273;69152;-57
2023/07/12 08:55:46;;;;;;;1.50;1.20;;;;;;;23.02;50.89;99551.51;104386;1255;72556;-56
2023/07/12 08:58:26;;;;;;;1.50;1.00;;;;;;;22.97;50.02;99551.59;104403;1260;60472;-56
2023/07/12 09:01:00;;;;;;;1.70;1.20;;;;;;;22.96;51.08;99545.91;104867;1260;60543;-57
2023/07/12 09:03:28;;;;;;;2.50;1.20;;;;;;;23.09;50.78;99553.98;104267;1260;74473;-57
2023/07/12 09:05:57;;;;;;;0.80;0.80;;;;;;;23.20;52.02;99554.58;104520;1260;70560;-57
2023/07/12 09:08:36;;;;;;;7.50;1.30;;;;;;;23.29;51.15;99551.84;104516;1254;71189;-58
2023/07/12 09:11:04;;;;;;;1.50;1.10;;;;;;;23.27;49.65;99550.46;104938;1259;60672;-55
2023/07/12 09:13:33;;;;;;;1.10;1.00;;;;;;;23.22;49.59;99549.84;104539;1260;60513;-55
2023/07/12 09:16:01;;;;;;;2.60;1.00;;;;;;;23.18;48.75;99550.27;104573;1254;73686;-55
2023/07/12 09:18:31;;;;;;;1.50;0.80;;;;;;;23.19;49.45;99543.71;104619;1255;69136;-54
2023/07/12 09:21:00;;;;;;;4.00;0.80;;;;;;;23.31;48.67;99541.85;104414;1259;72188;-56
2023/07/12 09:23:39;;;;;;;1.10;1.00;;;;;;;23.43;48.86;99540.71;104544;1257;60541;-55
2023/07/12 09:26:20;;;;;;;1.00;0.90;;;;;;;23.46;47.17;99538.58;104411;1260;60435;-54
2023/07/12 09:28:48;;;;;;;2.50;1.10;;;;;;;23.47;46.10;99538.52;104705;1253;74881;-55
2023/07/12 09:31:20;;;;;;;1.90;1.00;;;;;;;23.44;45.30;99539.89;104505;1257;69160;-55
2023/07/12 09:34:03;;;;;;;4.50;1.20;;;;;;;23.47;46.79;99540.80;104468;1263;73150;-54
2023/07/12 09:36:35;;;;;;;3.70;0.90;;;;;;;23.55;46.41;99539.18;104617;1257;60542;-54
2023/07/12 09:39:05;;;;;;;4.90;1.10;;;;;;;23.60;46.81;99536.20;104383;1260;60520;-55
2023/07/12 09:41:33;;;;;;;2.00;0.90;;;;;;;23.59;45.95;99531.44;105924;1259;73948;-55
2023/07/12 09:44:01;;;;;;;1.10;0.80;;;;;;;23.57;46.66;99528.77;104833;1258;68679;-55
2023/07/12 09:46:44;;;;;;;1.30;1.00;;;;;;;23.61;47.92;99528.78;104661;1261;72480;-55
2023/07/12 09:49:24;;;;;;;1.00;0.90;;;;;;;23.75;48.55;99527.15;104699;1263;61990;-55
2023/07/12 09:51:57;;;;;;;1.30;1.20;;;;;;;23.90;48.19;99531.06;104558;1255;60554;-55
2023/07/12 09:54:44;;;;;;;1.60;1.10;;;;;;;23.96;46.64;99537.80;104416;1266;73638;-55
2023/07/12 09:57:29;;;;;;;2.10;0.90;;;;;;;23.95;45.13;99534.92;107522;1257;70035;-56
2023/07/12 10:00:05;;;;;;;2.50;0.90;;;;;;;23.95;46.78;99531.30;104638;1254;72361;-55
2023/07/12 10:02:58;;;;;;;1.40;1.20;;;;;;;24.06;47.04;99533.34;104504;1266;60002;-55
2023/07/12 10:05:27;;;;;;;2.00;0.80;;;;;;;24.27;46.45;99527.90;104655;1257;60914;-56
2023/07/12 10:07:58;;;;;;;4.10;1.30;;;;;;;24.35;45.54;99526.35;104325;1255;73686;-56
2023/07/12 10:10:57;;;;;;;2.80;0.80;;;;;;;24.37;45.25;99522.05;104367;1254;69724;-57
2023/07/12 10:13:36;;;;;;;1.10;0.80;;;;;;;24.42;44.18;99521.09;104407;1266;72512;-57
2023/07/12 10:16:06;;;;;;;0.90;0.90;;;;;;;24.53;44.07;99528.98;104437;1257;60525;-57
2023/07/12 10:18:36;;;;;;;1.80;1.10;;;;;;;24.58;44.11;99527.30;104582;1254;60655;-58
2023/07/12 10:21:05;;;;;;;4.50;1.00;;;;;;;24.58;44.25;99520.42;104122;1259;73710;-55
2023/07/12 10:23:40;;;;;;;0.90;0.80;;;;;;;24.59;44.37;99519.20;104575;1256;70143;-56
2023/07/12 10:26:09;;;;;;;0.90;0.90;;;;;;;24.62;46.04;99521.27;104498;1265;72435;-55
2023/07/12 10:28:48;;;;;;;1.10;1.00;;;;;;;24.70;45.06;99520.61;104459;1258;60625;-56
2023/07/12 10:31:41;;;;;;;2.30;1.20;;;;;;;24.63;43.07;99519.59;104626;1257;60061;-56
2023/07/12 10:34:28;;;;;;;0.90;0.90;;;;;;;24.55;42.95;99521.60;104433;1254;74303;-57
2023/07/12 10:37:03;;;;;;;2.70;0.90;;;;;;;24.47;43.91;99518.86;104418;1269;69089;-56
2023/07/12 10:39:30;;;;;;;2.10;0.90;;;;;;;24.40;43.42;99519.35;108429;1254;73115;-56
2023/07/12 10:42:23;;;;;;;1.90;0.80;;;;;;;24.34;42.79;99513.22;106693;1259;60708;-56
2023/07/12 10:44:53;;;;;;;2.20;1.00;;;;;;;24.36;43.14;99508.89;104714;1260;60500;-56
2023/07/12 10:47:20;;;;;;;1.00;0.90;;;;;;;24.46;43.83;99499.61;105038;1259;73631;-55
2023/07/12 10:49:56;;;;;;;1.10;0.90;;;;;;;24.55;43.46;99493.48;104852;1258;69047;-56
2023/07/12 10:52:26;;;;;;;0.80;0.80;;;;;;;24.59;41.85;99490.74;105002;1258;72627;-56
2023/07/12 10:55:03;;;;;;;0.80;0.80;;;;;;;24.53;42.06;99489.95;104635;1254;60491;-56
2023/07/12 10:57:46;;;;;;;2.90;0.80;;;;;;;24.50;42.33;99491.31;104820;1256;60552;-56
2023/07/12 11:00:50;;;;;;;1.20;0.80;;;;;;;24.43;42.51;99484.52;104577;1269;73670;-57
2023/07/12 11:03:20;;;;;;;1.30;1.10;;;;;;;24.37;45.81;99493.74;104681;1272;69410;-57
2023/07/12 11:06:24;;;;;;;0.90;0.90;;;;;;;24.47;46.24;99497.14;104914;1254;71510;-56
2023/07/12 11:09:01;;;;;;;0.70;0.70;;;;;;;24.64;45.70;99496.35;104843;1261;60545;-55
2023/07/12 11:11:33;;;;;;;1.10;0.90;;;;;;;24.67;45.92;99495.98;104507;1258;60559;-57
2023/07/12 11:14:26;;;;;;;0.80;0.70;;;;;;;24.77;45.11;99496.02;104830;1259;74634;-56
2023/07/12 11:17:06;;;;;;;1.30;1.10;;;;;;;24.92;43.32;99499.19;104677;1260;69171;-57
2023/07/12 11:19:40;;;;;;;1.00;1.00;;;;;;;24.94;41.66;99498.81;104718;1258;72393;-56
2023/07/12 11:22:17;;;;;;;0.90;0.90;;;;;;;24.99;44.73;99493.02;104729;1261;60460;-57
2023/07/12 11:24:45;;;;;;;0.80;0.80;;;;;;;25.18;43.63;99489.83;104584;1257;60424;-57
2023/07/12 11:27:32;;;;;;;;;;;;;;;25.31;44.08;99496.99;104782;1256;74001;-55
2023/07/12 11:30:23;;;;;;;0.90;0.90;;;;;;;25.50;42.28;99495.92;104660;1266;69996;-56
2023/07/12 11:33:11;;;;;;;0.90;0.80;;;;;;;25.46;40.27;99501.15;104565;1270;75319;-56
2023/07/12 11:35:47;;;;;;;3.20;1.20;;;;;;;25.42;40.91;99495.87;104531;1253;60835;-56
2023/07/12 11:38:18;;;;;;;2.10;1.20;;;;;;;25.44;42.56;99499.04;104431;1260;60015;-55
2023/07/12 11:40:48;;;;;;;1.40;1.10;;;;;;;25.49;42.60;99498.00;108259;1254;74386;-56
2023/07/12 11:43:25;;;;;;;1.20;1.10;;;;;;;25.50;42.60;99494.27;106308;1258;69931;-56
2023/07/12 11:45:55;;;;;;;1.90;0.80;;;;;;;25.55;43.12;99497.14;104517;1255;71976;-55
2023/07/12 11:48:24;;;;;;;1.00;0.90;;;;;;;25.53;41.05;99495.02;104694;1258;60475;-58
2023/07/12 11:50:51;;;;;;;1.60;0.90;;;;;;;25.48;41.33;99493.63;105032;1260;59356;-55
2023/07/12 11:53:20;;;;;;;2.30;1.40;;;;;;;25.50;41.62;99485.83;104274;1260;73579;-58
2023/07/12 11:55:47;;;;;;;2.00;1.00;;;;;;;25.56;40.88;99485.36;104546;1266;69618;-57
2023/07/12 11:58:15;;;;;;;;;;;;;;;25.55;41.12;99487.98;108251;1256;72350;-56
2023/07/12 12:00:44;;;;;;;4.60;1.00;;;;;;;25.46;41.39;99492.01;107430;1255;62233;-56
2023/07/12 12:03:13;;;;;;;1.40;1.20;;;;;;;25.39;41.48;99490.91;106061;1259;60465;-55
2023/07/12 12:05:41;;;;;;;1.10;1.00;;;;;;;25.37;41.69;99486.68;105035;1260;73505;-56
2023/07/12 12:08:21;;;;;;;1.90;1.10;;;;;;;25.32;41.54;99482.42;105255;1253;69111;-56
2023/07/12 12:10:49;;;;;;;2.10;1.30;;;;;;;25.25;41.73;99484.55;105250;1255;73362;-56